This is the latest recevied weather packets stored in our database for station/object Huerbel. If no packets are shown the sender has not sent any weather packets the latest 10 day(s).
| Time | Temp. | Humidity | Pressure | Rain* | Wind** | Luminosity | Snow |
|---|---|---|---|---|---|---|---|
| 1777116730 | 19.44° C | 32% | 1019.2 hPa | 0 mm | - | - | - |
| 1777114931 | 18.89° C | 34% | 1019.1 hPa | 0 mm | - | - | - |
| 1777113131 | 18.33° C | 32% | 1019.5 hPa | 0 mm | - | - | - |
| 1777111330 | 17.78° C | 46% | 1019.5 hPa | 0 mm | - | - | - |
| 1777109530 | 16.67° C | 43% | 1019.7 hPa | 0 mm | - | - | - |
| 1777107730 | 15.56° C | 47% | 1019.8 hPa | 0 mm | - | - | - |
| 1777105931 | 14.44° C | 48% | 1019.9 hPa | 0 mm | - | - | - |
| 1777104130 | 13.89° C | 49% | 1019.9 hPa | 0 mm | - | - | - |
| 1777102331 | 10.56° C | 56% | 1020 hPa | 0 mm | - | - | - |
| 1777100532 | 6.67° C | 73% | 1020.2 hPa | 0 mm | - | - | - |
| 1777098736 | 3.33° C | 82% | 1020.4 hPa | 0 mm | - | - | - |
| 1777096931 | 1.11° C | 85% | 1020.5 hPa | 0 mm | - | - | - |
| 1777095132 | -0.56° C | 83% | 1020.3 hPa | 0 mm | - | - | - |
| 1777093331 | -0.56° C | 83% | 1020.2 hPa | 0 mm | - | - | - |
| 1777091531 | -0.56° C | 83% | 1020 hPa | 0 mm | - | - | - |
| 1777089731 | 0° C | 82% | 1020.1 hPa | 0 mm | - | - | - |
| 1777087931 | 0° C | 81% | 1020.3 hPa | 0 mm | - | - | - |
| 1777086131 | 0.56° C | 81% | 1020.4 hPa | 0 mm | - | - | - |
| 1777084336 | 0.56° C | 81% | 1020.4 hPa | 0 mm | - | - | - |
| 1777082536 | 0.56° C | 80% | 1020.3 hPa | 0 mm | - | - | - |
| 1777080732 | 1.11° C | 80% | 1020.3 hPa | 0 mm | - | - | - |
| 1777078931 | 1.11° C | 78% | 1020.4 hPa | 0 mm | - | - | - |
| 1777077130 | 1.67° C | 78% | 1020.5 hPa | 0 mm | - | - | - |
| 1777075330 | 2.22° C | 77% | 1020.8 hPa | 0 mm | - | - | - |
| 1777073529 | 2.78° C | 75% | 1021 hPa | 0 mm | - | - | - |
* Rain since midnight (hover to see other rain measurements)
** Current wind speed in m/s (hover to see current wind gust speed)